EGPI - Islay
Distance from station: E 5mi, 14km
Updated: 10/22/2017 8:20am
Mostly Cloudy
Mostly Cloudy
 Wind from WNW
Wind: WNW 17 mph , 28 km/h
Temperature: 52°F , 11°C
Dew Point: 43°F , 6°C
Humidity: 72%
Barometer: 29.85 inHg , 1011 hPa
Clouds: Mostly Cloudy
Visibility: 6 miles , 10 km
Cloud details: Few Clouds 3300 ft
Mostly Cloudy 4400 ft
2017/10/22 15:20 EGPI 221520Z 29015KT 9999 FEW033 BKN044 11/06 Q1011